Royal Princess — WDE9704 — position and weather

sailwx.info

Track history (hours):
 
Tides and Currents Weather Stations Pressure Air Temp Water Temp Dewpoint Dewpoint Depression Visibility Wind Speed Wind Dir Waves Ship Positions

Royal Princess

Owner: Royal Princess Charters, LLC., Weehawken, NJ. More information available from US FCC via Universal Licensing System and Coast Guard Vessel Documentation Center.

Last reported at 2017-Sep-24 09:59 UTC. Time now 2017-Sep-24 10:25 UTC.
Position N 40°46' W 074°01'.

Type: Ship. MMSI: 367420280.

Date/timePositionNaut miles runAvg speedWind from/ knotsBaromVisibWave heightAir tempDewpointWater temp
2017-Sep-24 09:59N 40°46' W 074°01'0 0.0
2017-Sep-24 09:30N 40°46' W 074°01'0 0.0
2017-Sep-24 09:00N 40°46' W 074°01'0 0.0
2017-Sep-24 08:30N 40°46' W 074°01'0 0.0
2017-Sep-24 07:59N 40°46' W 074°01'0 0.0
2017-Sep-24 07:26N 40°46' W 074°01'0 0.0
2017-Sep-24 06:54N 40°46' W 074°01'0 0.0
2017-Sep-24 06:28N 40°46' W 074°01'0 0.0
2017-Sep-24 05:59N 40°46' W 074°01'0 0.0
2017-Sep-24 05:26N 40°46' W 074°01'0 0.0
2017-Sep-24 04:58N 40°46' W 074°01'0 0.0
2017-Sep-24 04:28N 40°46' W 074°01'0 0.0
2017-Sep-24 03:58N 40°46' W 074°01'0 0.0
2017-Sep-24 03:29N 40°46' W 074°01'0 0.0
2017-Sep-24 03:00N 40°46' W 074°01'0 0.0
2017-Sep-24 02:22N 40°46' W 074°01'0 0.0
2017-Sep-24 01:59N 40°46' W 074°01'0 0.0
2017-Sep-24 01:30N 40°46' W 074°01'0 0.0
2017-Sep-24 00:57N 40°46' W 074°01'0 0.0
2017-Sep-24 00:23N 40°46' W 074°01'0 0.0
2017-Sep-23 23:56N 40°46' W 074°01'0 0.0
2017-Sep-23 23:25N 40°46' W 074°01'0 0.0
2017-Sep-23 22:54N 40°46' W 074°01'0 0.0
2017-Sep-23 22:28N 40°46' W 074°01'0 0.0
2017-Sep-23 21:59N 40°46' W 074°01'0 0.0
2017-Sep-23 21:29N 40°46' W 074°01'0 0.0
2017-Sep-23 20:54N 40°46' W 074°01'0 0.0
2017-Sep-23 20:28N 40°46' W 074°01'0 0.0
2017-Sep-23 19:59N 40°46' W 074°01'2 0.0
2017-Sep-22 02:00N 40°44' W 074°01'3 5.2
2017-Sep-22 01:30N 40°41' W 074°02'2 3.6
2017-Sep-22 01:00N 40°42' W 074°00'2 3.2
2017-Sep-22 00:30N 40°43' W 073°58'2 4.9
2017-Sep-22 00:00N 40°42' W 074°02'3 6.4
2017-Sep-21 23:30N 40°45' W 074°01'0 0.2
2017-Sep-21 22:53N 40°46' W 074°01'0 0.0
2017-Sep-21 22:29N 40°46' W 074°01'0 0.0
2017-Sep-21 21:58N 40°46' W 074°01'0 0.0
2017-Sep-21 21:26N 40°46' W 074°01'0 0.0
2017-Sep-21 20:54N 40°46' W 074°01'0 0.0
2017-Sep-21 20:30N 40°46' W 074°01'0 0.0
2017-Sep-21 19:57N 40°46' W 074°01'0 0.0
2017-Sep-21 19:25N 40°46' W 074°01'0 0.0
2017-Sep-21 19:00N 40°46' W 074°01'0 0.0
2017-Sep-21 18:28N 40°46' W 074°01'0 0.0
2017-Sep-21 18:00N 40°46' W 074°01'0 0.0
2017-Sep-21 17:26N 40°46' W 074°01'0 0.0
2017-Sep-21 16:53N 40°46' W 074°01'0 0.0
2017-Sep-21 16:30N 40°46' W 074°01'0 0.0
2017-Sep-21 15:57N 40°46' W 074°01'0 0.0
2017-Sep-21 15:19N 40°46' W 074°01'0 0.0
2017-Sep-21 15:00N 40°46' W 074°01'0 0.0
2017-Sep-21 14:23N 40°46' W 074°01'0 0.0
2017-Sep-21 13:58N 40°46' W 074°01'0 0.0
2017-Sep-21 13:24N 40°46' W 074°01'0 0.0
2017-Sep-21 13:00N 40°46' W 074°01'0 0.0
2017-Sep-21 12:29N 40°46' W 074°01'0 0.0
2017-Sep-21 11:58N 40°46' W 074°01'0 0.0
2017-Sep-21 11:30N 40°46' W 074°01'0 0.0
2017-Sep-21 11:00N 40°46' W 074°01'0 0.0
2017-Sep-21 10:29N 40°46' W 074°01'0 0.0
2017-Sep-21 09:59N 40°46' W 074°01'0 0.0
2017-Sep-21 09:29N 40°46' W 074°01'0 0.0
2017-Sep-21 08:54N 40°46' W 074°01'0 0.0
2017-Sep-21 08:29N 40°46' W 074°01'0 0.0
2017-Sep-21 07:59N 40°46' W 074°01'0 0.0
2017-Sep-21 07:28N 40°46' W 074°01'0 0.0
2017-Sep-21 06:47N 40°46' W 074°01'0 0.0
2017-Sep-21 06:28N 40°46' W 074°01'0 0.0
2017-Sep-21 06:00N 40°46' W 074°01'0 0.0
2017-Sep-21 05:25N 40°46' W 074°01'0 0.0
2017-Sep-21 04:58N 40°46' W 074°01'0 0.0
2017-Sep-21 04:28N 40°46' W 074°01'0 0.0
2017-Sep-21 03:59N 40°46' W 074°01'0 0.0
2017-Sep-21 03:25N 40°46' W 074°01'0 0.0
2017-Sep-21 02:59N 40°46' W 074°01'0 0.0
2017-Sep-21 02:28N 40°46' W 074°01'0 0.0
2017-Sep-21 01:59N 40°46' W 074°01'0 0.0
2017-Sep-21 01:24N 40°46' W 074°01'0 0.0
2017-Sep-21 00:54N 40°46' W 074°01'0 0.0
2017-Sep-21 00:25N 40°46' W 074°01'0 0.0
2017-Sep-20 23:59N 40°46' W 074°01'0 0.0
2017-Sep-20 23:28N 40°46' W 074°01'0 0.0
2017-Sep-20 22:53N 40°46' W 074°01'0 0.0
2017-Sep-20 22:23N 40°46' W 074°01'0 0.0
2017-Sep-20 22:00N 40°46' W 074°01'0 0.0
2017-Sep-20 21:24N 40°46' W 074°01'0 0.0
2017-Sep-20 20:53N 40°46' W 074°01'0 0.0
2017-Sep-20 20:23N 40°46' W 074°01'0 0.0
2017-Sep-20 19:58N 40°46' W 074°01'0 0.0
2017-Sep-20 19:24N 40°46' W 074°01'0 0.0
2017-Sep-20 18:53N 40°46' W 074°01'0 0.0
2017-Sep-20 18:23N 40°46' W 074°01'0 0.0
2017-Sep-20 18:00N 40°46' W 074°01'0 0.0
2017-Sep-20 17:24N 40°46' W 074°01'0 0.0
2017-Sep-20 16:58N 40°46' W 074°01'0 0.0
2017-Sep-20 16:29N 40°46' W 074°01'0 0.0
2017-Sep-20 15:56N 40°46' W 074°01'0 0.0
2017-Sep-20 15:24N 40°46' W 074°01'0 0.0
2017-Sep-20 14:58N 40°46' W 074°01'0 0.0
2017-Sep-20 13:56N 40°46' W 074°01'0 0.0
2017-Sep-20 13:27N 40°46' W 074°01'0 0.0
2017-Sep-20 12:55N 40°46' W 074°01'0 0.0
2017-Sep-20 12:29N 40°46' W 074°01'0 0.0
2017-Sep-20 11:56N 40°46' W 074°01'0 0.0
2017-Sep-20 11:24N 40°46' W 074°01'0 0.0
2017-Sep-20 11:00N 40°46' W 074°01'0 0.0
2017-Sep-20 10:28N 40°46' W 074°01'0 0.0
2017-Sep-20 09:59N 40°46' W 074°01'0 0.0
2017-Sep-20 09:30N 40°46' W 074°01'0 0.0
2017-Sep-20 09:00N 40°46' W 074°01'0 0.0
2017-Sep-20 08:23N 40°46' W 074°01'0 0.0
2017-Sep-20 07:58N 40°46' W 074°01'0 0.0
2017-Sep-20 07:29N 40°46' W 074°01'0 0.0
2017-Sep-20 06:52N 40°46' W 074°01'0 0.0
2017-Sep-20 06:29N 40°46' W 074°01'0 0.0
2017-Sep-20 05:58N 40°46' W 074°01'0 0.0
2017-Sep-20 05:25N 40°46' W 074°01'0 0.0
2017-Sep-20 04:53N 40°46' W 074°01'0 0.0
2017-Sep-20 04:23N 40°46' W 074°01'0 0.0
2017-Sep-20 03:59N 40°46' W 074°01'0 0.0
2017-Sep-20 03:24N 40°46' W 074°01'0 0.0
2017-Sep-20 02:59N 40°46' W 074°01'0 0.0
2017-Sep-20 02:28N 40°46' W 074°01'0 0.0
2017-Sep-20 02:00N 40°46' W 074°01'0 0.0
2017-Sep-20 01:28N 40°46' W 074°01'0 0.0
2017-Sep-20 01:00N 40°46' W 074°01'0 0.0
2017-Sep-20 00:23N 40°46' W 074°01'0 0.0
2017-Sep-20 00:00N 40°46' W 074°01'0 0.0
2017-Sep-19 23:24N 40°46' W 074°01'0 0.0
2017-Sep-19 22:55N 40°46' W 074°01'0 0.0
2017-Sep-19 22:28N 40°46' W 074°01'0 0.0
2017-Sep-19 21:59N 40°46' W 074°01'0 0.0
2017-Sep-19 21:24N 40°46' W 074°01'0 0.0
2017-Sep-19 20:54N 40°46' W 074°01'0 0.0
2017-Sep-19 20:29N 40°46' W 074°01'0 0.0
2017-Sep-19 19:54N 40°46' W 074°01'0 0.0
2017-Sep-19 19:25N 40°46' W 074°01'0 0.0
2017-Sep-19 18:55N 40°46' W 074°01'0 0.0
2017-Sep-19 18:30N 40°46' W 074°01'0 0.0
2017-Sep-19 18:00N 40°46' W 074°01'0 0.0
2017-Sep-19 17:24N 40°46' W 074°01'0 0.0
2017-Sep-19 16:53N 40°46' W 074°01'0 0.0
2017-Sep-19 16:23N 40°46' W 074°01'0 0.0
2017-Sep-19 15:59N 40°46' W 074°01'0 0.0
2017-Sep-19 15:26N 40°46' W 074°01'0 0.0
2017-Sep-19 14:59N 40°46' W 074°01'0 0.0
2017-Sep-19 14:30N 40°46' W 074°01'0 0.0
2017-Sep-19 14:00N 40°46' W 074°01'0 0.0
2017-Sep-19 13:27N 40°46' W 074°01'0 0.0
2017-Sep-19 12:54N 40°46' W 074°01'0 0.0
2017-Sep-19 12:30N 40°46' W 074°01'0 0.0
2017-Sep-19 11:56N 40°46' W 074°01'0 0.0
2017-Sep-19 11:26N 40°46' W 074°01'0 0.0
2017-Sep-19 10:55N 40°46' W 074°01'0 0.0
2017-Sep-19 10:30N 40°46' W 074°01'0 0.0
2017-Sep-19 09:57N 40°46' W 074°01'0 0.0
2017-Sep-19 09:30N 40°46' W 074°01'0 0.0
2017-Sep-19 08:58N 40°46' W 074°01'0 0.0
2017-Sep-19 08:30N 40°46' W 074°01'0 0.0
2017-Sep-19 07:59N 40°46' W 074°01'0 0.0
2017-Sep-19 07:30N 40°46' W 074°01'0 0.0
2017-Sep-19 06:59N 40°46' W 074°01'0 0.0
2017-Sep-19 06:29N 40°46' W 074°01'0 0.0
2017-Sep-19 05:59N 40°46' W 074°01'0 0.0
2017-Sep-19 05:27N 40°46' W 074°01'0 0.0
2017-Sep-19 04:58N 40°46' W 074°01'0 0.0
2017-Sep-19 04:30N 40°46' W 074°01'0 0.0
2017-Sep-19 03:58N 40°46' W 074°01'0 0.0
2017-Sep-19 03:24N 40°46' W 074°01'0 0.0
2017-Sep-19 03:00N 40°46' W 074°01'0 0.0
2017-Sep-19 02:28N 40°46' W 074°01'0 0.0
2017-Sep-19 01:58N 40°46' W 074°01'0 0.0
2017-Sep-19 01:30N 40°46' W 074°01'0 0.0
2017-Sep-19 00:53N 40°46' W 074°01'0 0.0
2017-Sep-19 00:28N 40°46' W 074°01'0 0.0
2017-Sep-18 23:57N 40°46' W 074°01'0 0.0
2017-Sep-18 23:26N 40°46' W 074°01'0 0.0
2017-Sep-18 22:58N 40°46' W 074°01'0 0.0
2017-Sep-18 22:28N 40°46' W 074°01'0 0.0
2017-Sep-18 21:59N 40°46' W 074°01'0 0.0
2017-Sep-18 21:24N 40°46' W 074°01'0 0.0
2017-Sep-18 20:57N 40°46' W 074°01'0 0.0
2017-Sep-18 20:30N 40°46' W 074°01'0 0.0
2017-Sep-18 20:00N 40°46' W 074°01'0 0.0
2017-Sep-18 19:26N 40°46' W 074°01'0 0.0
2017-Sep-18 18:55N 40°46' W 074°01'0 0.0
2017-Sep-18 18:28N 40°46' W 074°01'0 0.0
2017-Sep-18 17:59N 40°46' W 074°01'0 0.0
2017-Sep-18 17:29N 40°46' W 074°01'0 0.0
2017-Sep-18 17:00N 40°46' W 074°01'0 0.0
2017-Sep-18 16:30N 40°46' W 074°01'0 0.0
2017-Sep-18 16:00N 40°46' W 074°01'0 0.0
2017-Sep-18 15:30N 40°46' W 074°01'0 0.0
2017-Sep-18 15:00N 40°46' W 074°01'0 0.0
2017-Sep-18 14:30N 40°46' W 074°01'0 0.0
2017-Sep-18 13:56N 40°46' W 074°01'0 0.0
2017-Sep-18 13:21N 40°46' W 074°01'0 0.0
2017-Sep-18 12:54N 40°46' W 074°01'0 0.0
2017-Sep-18 12:30N 40°46' W 074°01'0 0.0
2017-Sep-18 11:58N 40°46' W 074°01'0 0.0
2017-Sep-18 11:28N 40°46' W 074°01'0 0.0
2017-Sep-18 10:54N 40°46' W 074°01'0 0.0
2017-Sep-18 10:29N 40°46' W 074°01'0 0.0
2017-Sep-18 09:57N 40°46' W 074°01'0 0.0
2017-Sep-18 09:27N 40°46' W 074°01'0 0.0
2017-Sep-18 09:00N 40°46' W 074°01'0 0.0
2017-Sep-18 08:28N 40°46' W 074°01'0 0.0
2017-Sep-18 07:59N 40°46' W 074°01'0 0.0
2017-Sep-18 07:29N 40°46' W 074°01'0 0.0
2017-Sep-18 06:54N 40°46' W 074°01'0 0.0
2017-Sep-18 06:29N 40°46' W 074°01'0 0.0
2017-Sep-18 05:59N 40°46' W 074°01'0 0.0
2017-Sep-18 05:26N 40°46' W 074°01'0 0.0
2017-Sep-18 05:00N 40°46' W 074°01'0 0.0
2017-Sep-18 04:20N 40°46' W 074°01'0 0.0
2017-Sep-18 04:00N 40°46' W 074°01'0 0.0
2017-Sep-18 03:27N 40°46' W 074°01'0 0.0
2017-Sep-18 02:58N 40°46' W 074°01'0 0.0
2017-Sep-18 02:29N 40°46' W 074°01'0 0.0
2017-Sep-18 01:58N 40°46' W 074°01'0 0.0
2017-Sep-18 01:27N 40°46' W 074°01'0 0.0
2017-Sep-18 00:53N 40°46' W 074°01'0 0.0
2017-Sep-18 00:29N 40°46' W 074°01'0 0.0
2017-Sep-17 23:59N 40°46' W 074°01'0 0.0
2017-Sep-17 23:27N 40°46' W 074°01'0 0.0
2017-Sep-17 22:59N 40°46' W 074°01'0 0.0
2017-Sep-17 22:28N 40°46' W 074°01'0 0.0
2017-Sep-17 21:54N 40°46' W 074°01'0 0.0
2017-Sep-17 21:24N 40°46' W 074°01'0 0.0
2017-Sep-17 21:00N 40°46' W 074°01'0 0.0
2017-Sep-17 20:30N 40°46' W 074°01'0 0.0
2017-Sep-17 20:00N 40°46' W 074°01'0 0.0
2017-Sep-17 19:26N 40°46' W 074°01'0 0.0
2017-Sep-17 18:54N 40°46' W 074°01'0 0.0
2017-Sep-17 18:23N 40°46' W 074°01'0 0.0
2017-Sep-17 17:57N 40°46' W 074°01'0 0.0
2017-Sep-17 17:26N 40°46' W 074°01'0 0.0
2017-Sep-17 16:58N 40°46' W 074°01'0 0.0
2017-Sep-17 16:30N 40°46' W 074°01'0 0.0
2017-Sep-17 15:58N 40°46' W 074°01'0 0.0
2017-Sep-17 15:24N 40°46' W 074°01'0 0.0
2017-Sep-17 14:53N 40°46' W 074°01'0 0.0
2017-Sep-17 14:29N 40°46' W 074°01'0 0.0
2017-Sep-17 13:59N 40°46' W 074°01'0 0.0
2017-Sep-17 13:26N 40°46' W 074°01'0 0.0
2017-Sep-17 12:57N 40°46' W 074°01'0 0.0
2017-Sep-17 12:27N 40°46' W 074°01'0 0.0
2017-Sep-17 11:59N 40°46' W 074°01'0 0.0
2017-Sep-17 11:26N 40°46' W 074°01'0 0.0
2017-Sep-17 10:55N 40°46' W 074°01'0 0.0
2017-Sep-17 10:28N 40°46' W 074°01'0 0.0
2017-Sep-17 09:57N 40°46' W 074°01'0 0.0
2017-Sep-17 09:25N 40°46' W 074°01'0 0.0
2017-Sep-17 08:52N 40°46' W 074°01'0 0.0
2017-Sep-17 08:29N 40°46' W 074°01'0 0.0
2017-Sep-17 07:58N 40°46' W 074°01'0 0.0
2017-Sep-17 07:30N 40°46' W 074°01'0 0.0
2017-Sep-17 07:00N 40°46' W 074°01'0 0.0
2017-Sep-17 06:23N 40°46' W 074°01'0 0.0
2017-Sep-17 05:57N 40°46' W 074°01'0 0.0
2017-Sep-17 05:30N 40°46' W 074°01'0 0.0
2017-Sep-17 04:54N 40°46' W 074°01'0 0.0
2017-Sep-17 04:29N 40°46' W 074°01'0 0.0
2017-Sep-17 03:58N 40°46' W 074°01'0 0.0
2017-Sep-17 03:30N 40°46' W 074°01'0 0.0
2017-Sep-17 02:56N 40°46' W 074°01'0 0.0
2017-Sep-17 02:28N 40°46' W 074°01'0 0.0
2017-Sep-17 02:00N 40°46' W 074°01'0 0.0
2017-Sep-17 01:26N 40°46' W 074°01'0 0.0
2017-Sep-17 00:58N 40°46' W 074°01'0 0.0
2017-Sep-17 00:28N 40°46' W 074°01'0 0.0
2017-Sep-16 23:59N 40°46' W 074°01'0 0.0
2017-Sep-16 23:28N 40°46' W 074°01'0 0.0
2017-Sep-16 22:55N 40°46' W 074°01'0 0.0
2017-Sep-16 22:29N 40°46' W 074°01'0 0.0
2017-Sep-16 21:56N 40°46' W 074°01'0 0.0
2017-Sep-16 21:25N 40°46' W 074°01'0 0.0
2017-Sep-16 21:00N 40°46' W 074°01'0 0.0
2017-Sep-16 20:28N 40°46' W 074°01'0 0.0
2017-Sep-16 19:59N 40°46' W 074°01'0 0.0
2017-Sep-16 19:25N 40°46' W 074°01'0 0.0
2017-Sep-16 18:55N 40°46' W 074°01'0 0.0
2017-Sep-16 18:29N 40°46' W 074°01'0 0.0
2017-Sep-16 18:00N 40°46' W 074°01'0 0.0
2017-Sep-16 17:30N 40°46' W 074°01'0 0.0
2017-Sep-16 16:54N 40°46' W 074°01'0 0.0
2017-Sep-16 16:28N 40°46' W 074°01'0 0.0
2017-Sep-16 15:58N 40°46' W 074°01'0 0.0
2017-Sep-16 15:28N 40°46' W 074°01'0 0.0
2017-Sep-16 14:57N 40°46' W 074°01'0 0.0
2017-Sep-16 14:30N 40°46' W 074°01'0 0.0
2017-Sep-16 14:00N 40°46' W 074°01'0 0.0
2017-Sep-16 13:28N 40°46' W 074°01'0 0.0
2017-Sep-16 12:59N 40°46' W 074°01'0 0.0
2017-Sep-16 12:28N 40°46' W 074°01'0 0.0
2017-Sep-16 11:59N 40°46' W 074°01'0 0.0
2017-Sep-16 11:30N 40°46' W 074°01'0 0.0
2017-Sep-16 10:55N 40°46' W 074°01'0 0.0
2017-Sep-16 10:30N 40°46' W 074°01'0 0.0
2017-Sep-16 09:59N 40°46' W 074°01'0 0.0
2017-Sep-16 09:25N 40°46' W 074°01'0 0.0
2017-Sep-16 08:58N 40°46' W 074°01'0 0.0
2017-Sep-16 08:29N 40°46' W 074°01'0 0.0
2017-Sep-16 08:00N 40°46' W 074°01'0 0.0
2017-Sep-16 07:28N 40°46' W 074°01'0 0.0
2017-Sep-16 06:58N 40°46' W 074°01'0 0.0
2017-Sep-16 06:29N 40°46' W 074°01'0 0.0
2017-Sep-16 05:57N 40°46' W 074°01'0 0.0
2017-Sep-16 05:30N 40°46' W 074°01'0 0.0
2017-Sep-16 04:59N 40°46' W 074°01'0 0.0
2017-Sep-16 04:28N 40°46' W 074°01'0 0.0
2017-Sep-16 03:54N 40°46' W 074°01'0 0.0
2017-Sep-16 03:28N 40°46' W 074°01'0 0.0
2017-Sep-16 03:00N 40°46' W 074°01'0 0.0
2017-Sep-16 02:28N 40°46' W 074°01'0 0.0
2017-Sep-16 01:59N 40°46' W 074°01'0 0.0
2017-Sep-16 01:26N 40°46' W 074°01'0 0.0
2017-Sep-16 01:00N 40°46' W 074°01'0 0.0
2017-Sep-16 00:30N 40°46' W 074°01'0 0.0
2017-Sep-15 23:59N 40°46' W 074°01'0 0.0
2017-Sep-15 23:26N 40°46' W 074°01'0 0.0
2017-Sep-15 22:55N 40°46' W 074°01'0 0.0
2017-Sep-15 22:29N 40°46' W 074°01'0 0.0
2017-Sep-15 21:59N 40°46' W 074°01'0 0.0
2017-Sep-15 21:25N 40°46' W 074°01'0 0.0
2017-Sep-15 20:58N 40°46' W 074°01'0 0.0
2017-Sep-15 20:28N 40°46' W 074°01'0 0.0
2017-Sep-15 19:57N 40°46' W 074°01'0 0.0
2017-Sep-15 19:27N 40°46' W 074°01'0 0.0
2017-Sep-15 18:58N 40°46' W 074°01'0 0.0
2017-Sep-15 18:28N 40°46' W 074°01'0 0.0
2017-Sep-15 17:59N 40°46' W 074°01'0 0.0
2017-Sep-15 17:27N 40°46' W 074°01'0 0.0
2017-Sep-15 16:55N 40°46' W 074°01'0 0.0
2017-Sep-15 16:30N 40°46' W 074°01'0 0.0
2017-Sep-15 15:59N 40°46' W 074°01'0 0.0
2017-Sep-15 15:29N 40°46' W 074°01'0 0.0
2017-Sep-15 14:58N 40°46' W 074°01'0 0.0
2017-Sep-15 14:30N 40°46' W 074°01'0 0.0
2017-Sep-15 13:57N 40°46' W 074°01'0 0.0
2017-Sep-15 13:30N 40°46' W 074°01'0 0.0
2017-Sep-15 13:01N 40°46' W 074°01'0 0.0
2017-Sep-15 12:28N 40°46' W 074°01'0 0.0
2017-Sep-15 11:59N 40°46' W 074°01'0 0.0
2017-Sep-15 11:25N 40°46' W 074°01'0 0.0
2017-Sep-15 11:01N 40°46' W 074°01'0 0.0
2017-Sep-15 10:30N 40°46' W 074°01'0 0.0
2017-Sep-15 10:00N 40°46' W 074°01'0 0.0
2017-Sep-15 09:29N 40°46' W 074°01'0 0.0
2017-Sep-15 08:58N 40°46' W 074°01'0 0.0
2017-Sep-15 08:30N 40°46' W 074°01'0 0.0
2017-Sep-15 08:00N 40°46' W 074°01'0 0.0
2017-Sep-15 07:25N 40°46' W 074°01'0 0.0
2017-Sep-15 07:01N 40°46' W 074°01'0 0.0
2017-Sep-15 06:31N 40°46' W 074°01'0 0.0
2017-Sep-15 05:58N 40°46' W 074°01'0 0.0
2017-Sep-15 05:30N 40°46' W 074°01'0 0.0
2017-Sep-15 04:58N 40°46' W 074°01'0 0.0
2017-Sep-15 04:28N 40°46' W 074°01'0 0.0
2017-Sep-15 03:56N 40°46' W 074°01'0 0.0
2017-Sep-15 03:28N 40°46' W 074°01'0 0.0
2017-Sep-15 02:59N 40°46' W 074°01'0 0.0
2017-Sep-15 02:29N 40°46' W 074°01'0 0.0
2017-Sep-15 01:55N 40°46' W 074°01'0 0.0
2017-Sep-15 01:25N 40°46' W 074°01'0 0.0
2017-Sep-15 00:57N 40°46' W 074°01'0 0.0
2017-Sep-15 00:30N 40°46' W 074°01'0 0.0
2017-Sep-14 23:59N 40°46' W 074°01'0 0.0
2017-Sep-14 23:26N 40°46' W 074°01'0 0.0
2017-Sep-14 22:54N 40°46' W 074°01'0 0.0
2017-Sep-14 22:30N 40°46' W 074°01'0 0.0
2017-Sep-14 21:56N 40°46' W 074°01'0 0.0
2017-Sep-14 21:30N 40°46' W 074°01'0 0.0
2017-Sep-14 21:00N 40°46' W 074°01'0 0.0
2017-Sep-14 20:31N 40°46' W 074°01'0 0.0
2017-Sep-14 19:56N 40°46' W 074°01'0 0.0
2017-Sep-14 19:27N 40°46' W 074°01'0 0.0
2017-Sep-14 19:00N 40°46' W 074°01'0 0.0
2017-Sep-14 18:27N 40°46' W 074°01'0 0.0
2017-Sep-14 17:55N 40°46' W 074°01'0 0.0
2017-Sep-14 17:17N 40°46' W 074°01'0 0.0
2017-Sep-14 16:55N 40°46' W 074°01'0 0.0
2017-Sep-14 16:28N 40°46' W 074°01'0 0.0
2017-Sep-14 15:59N 40°46' W 074°01'0 0.0
2017-Sep-14 15:28N 40°46' W 074°01'0 0.0
2017-Sep-14 14:53N 40°46' W 074°01'0 0.0
2017-Sep-14 14:30N 40°46' W 074°01'0 0.0
2017-Sep-14 14:00N 40°46' W 074°01'0 0.0
2017-Sep-14 13:30N 40°46' W 074°01'0 0.0
2017-Sep-14 12:53N 40°46' W 074°01'0 0.0
2017-Sep-14 12:29N 40°46' W 074°01'0 0.0
2017-Sep-14 11:55N 40°46' W 074°01'0 0.0
2017-Sep-14 11:29N 40°46' W 074°01'0 0.0
2017-Sep-14 10:51N 40°46' W 074°01'0 0.0
2017-Sep-14 10:27N 40°46' W 074°01'  
Track history (hours):
 
Tides and Currents Weather Stations Pressure Air Temp Water Temp Dewpoint Dewpoint Depression Visibility Wind Speed Wind Dir Waves Ship Positions

Royal Princess

Owner: Royal Princess Charters, LLC., Weehawken, NJ. More information available from US FCC via Universal Licensing System and Coast Guard Vessel Documentation Center.

Last reported at 2017-Sep-24 09:59 UTC. Time now 2017-Sep-24 10:25 UTC.
Position N 40°46' W 074°01'.

Type: Ship. MMSI: 367420280.

Date/timePositionNaut miles runAvg speedWind from/ knotsBaromVisibWave heightAir tempDewpointWater temp
2017-Sep-24 09:59N 40°46' W 074°01'0 0.0
2017-Sep-24 09:30N 40°46' W 074°01'0 0.0
2017-Sep-24 09:00N 40°46' W 074°01'0 0.0
2017-Sep-24 08:30N 40°46' W 074°01'0 0.0
2017-Sep-24 07:59N 40°46' W 074°01'0 0.0
2017-Sep-24 07:26N 40°46' W 074°01'0 0.0
2017-Sep-24 06:54N 40°46' W 074°01'0 0.0
2017-Sep-24 06:28N 40°46' W 074°01'0 0.0
2017-Sep-24 05:59N 40°46' W 074°01'0 0.0
2017-Sep-24 05:26N 40°46' W 074°01'0 0.0
2017-Sep-24 04:58N 40°46' W 074°01'0 0.0
2017-Sep-24 04:28N 40°46' W 074°01'0 0.0
2017-Sep-24 03:58N 40°46' W 074°01'0 0.0
2017-Sep-24 03:29N 40°46' W 074°01'0 0.0
2017-Sep-24 03:00N 40°46' W 074°01'0 0.0
2017-Sep-24 02:22N 40°46' W 074°01'0 0.0
2017-Sep-24 01:59N 40°46' W 074°01'0 0.0
2017-Sep-24 01:30N 40°46' W 074°01'0 0.0
2017-Sep-24 00:57N 40°46' W 074°01'0 0.0
2017-Sep-24 00:23N 40°46' W 074°01'0 0.0
2017-Sep-23 23:56N 40°46' W 074°01'0 0.0
2017-Sep-23 23:25N 40°46' W 074°01'0 0.0
2017-Sep-23 22:54N 40°46' W 074°01'0 0.0
2017-Sep-23 22:28N 40°46' W 074°01'0 0.0
2017-Sep-23 21:59N 40°46' W 074°01'0 0.0
2017-Sep-23 21:29N 40°46' W 074°01'0 0.0
2017-Sep-23 20:54N 40°46' W 074°01'0 0.0
2017-Sep-23 20:28N 40°46' W 074°01'0 0.0
2017-Sep-23 19:59N 40°46' W 074°01'2 0.0
2017-Sep-22 02:00N 40°44' W 074°01'3 5.2
2017-Sep-22 01:30N 40°41' W 074°02'2 3.6
2017-Sep-22 01:00N 40°42' W 074°00'2 3.2
2017-Sep-22 00:30N 40°43' W 073°58'2 4.9
2017-Sep-22 00:00N 40°42' W 074°02'3 6.4
2017-Sep-21 23:30N 40°45' W 074°01'0 0.2
2017-Sep-21 22:53N 40°46' W 074°01'0 0.0
2017-Sep-21 22:29N 40°46' W 074°01'0 0.0
2017-Sep-21 21:58N 40°46' W 074°01'0 0.0
2017-Sep-21 21:26N 40°46' W 074°01'0 0.0
2017-Sep-21 20:54N 40°46' W 074°01'0 0.0
2017-Sep-21 20:30N 40°46' W 074°01'0 0.0
2017-Sep-21 19:57N 40°46' W 074°01'0 0.0
2017-Sep-21 19:25N 40°46' W 074°01'0 0.0
2017-Sep-21 19:00N 40°46' W 074°01'0 0.0
2017-Sep-21 18:28N 40°46' W 074°01'0 0.0
2017-Sep-21 18:00N 40°46' W 074°01'0 0.0
2017-Sep-21 17:26N 40°46' W 074°01'0 0.0
2017-Sep-21 16:53N 40°46' W 074°01'0 0.0
2017-Sep-21 16:30N 40°46' W 074°01'0 0.0
2017-Sep-21 15:57N 40°46' W 074°01'0 0.0
2017-Sep-21 15:19N 40°46' W 074°01'0 0.0
2017-Sep-21 15:00N 40°46' W 074°01'0 0.0
2017-Sep-21 14:23N 40°46' W 074°01'0 0.0
2017-Sep-21 13:58N 40°46' W 074°01'0 0.0
2017-Sep-21 13:24N 40°46' W 074°01'0 0.0
2017-Sep-21 13:00N 40°46' W 074°01'0 0.0
2017-Sep-21 12:29N 40°46' W 074°01'0 0.0
2017-Sep-21 11:58N 40°46' W 074°01'0 0.0
2017-Sep-21 11:30N 40°46' W 074°01'0 0.0
2017-Sep-21 11:00N 40°46' W 074°01'0 0.0
2017-Sep-21 10:29N 40°46' W 074°01'0 0.0
2017-Sep-21 09:59N 40°46' W 074°01'0 0.0
2017-Sep-21 09:29N 40°46' W 074°01'0 0.0
2017-Sep-21 08:54N 40°46' W 074°01'0 0.0
2017-Sep-21 08:29N 40°46' W 074°01'0 0.0
2017-Sep-21 07:59N 40°46' W 074°01'0 0.0
2017-Sep-21 07:28N 40°46' W 074°01'0 0.0
2017-Sep-21 06:47N 40°46' W 074°01'0 0.0
2017-Sep-21 06:28N 40°46' W 074°01'0 0.0
2017-Sep-21 06:00N 40°46' W 074°01'0 0.0
2017-Sep-21 05:25N 40°46' W 074°01'0 0.0
2017-Sep-21 04:58N 40°46' W 074°01'0 0.0
2017-Sep-21 04:28N 40°46' W 074°01'0 0.0
2017-Sep-21 03:59N 40°46' W 074°01'0 0.0
2017-Sep-21 03:25N 40°46' W 074°01'0 0.0
2017-Sep-21 02:59N 40°46' W 074°01'0 0.0
2017-Sep-21 02:28N 40°46' W 074°01'0 0.0
2017-Sep-21 01:59N 40°46' W 074°01'0 0.0
2017-Sep-21 01:24N 40°46' W 074°01'0 0.0
2017-Sep-21 00:54N 40°46' W 074°01'0 0.0
2017-Sep-21 00:25N 40°46' W 074°01'0 0.0
2017-Sep-20 23:59N 40°46' W 074°01'0 0.0
2017-Sep-20 23:28N 40°46' W 074°01'0 0.0
2017-Sep-20 22:53N 40°46' W 074°01'0 0.0
2017-Sep-20 22:23N 40°46' W 074°01'0 0.0
2017-Sep-20 22:00N 40°46' W 074°01'0 0.0
2017-Sep-20 21:24N 40°46' W 074°01'0 0.0
2017-Sep-20 20:53N 40°46' W 074°01'0 0.0
2017-Sep-20 20:23N 40°46' W 074°01'0 0.0
2017-Sep-20 19:58N 40°46' W 074°01'0 0.0
2017-Sep-20 19:24N 40°46' W 074°01'0 0.0
2017-Sep-20 18:53N 40°46' W 074°01'0 0.0
2017-Sep-20 18:23N 40°46' W 074°01'0 0.0
2017-Sep-20 18:00N 40°46' W 074°01'0 0.0
2017-Sep-20 17:24N 40°46' W 074°01'0 0.0
2017-Sep-20 16:58N 40°46' W 074°01'0 0.0
2017-Sep-20 16:29N 40°46' W 074°01'0 0.0
2017-Sep-20 15:56N 40°46' W 074°01'0 0.0
2017-Sep-20 15:24N 40°46' W 074°01'0 0.0
2017-Sep-20 14:58N 40°46' W 074°01'0 0.0
2017-Sep-20 13:56N 40°46' W 074°01'0 0.0
2017-Sep-20 13:27N 40°46' W 074°01'0 0.0
2017-Sep-20 12:55N 40°46' W 074°01'0 0.0
2017-Sep-20 12:29N 40°46' W 074°01'0 0.0
2017-Sep-20 11:56N 40°46' W 074°01'0 0.0
2017-Sep-20 11:24N 40°46' W 074°01'0 0.0
2017-Sep-20 11:00N 40°46' W 074°01'0 0.0
2017-Sep-20 10:28N 40°46' W 074°01'0 0.0
2017-Sep-20 09:59N 40°46' W 074°01'0 0.0
2017-Sep-20 09:30N 40°46' W 074°01'0 0.0
2017-Sep-20 09:00N 40°46' W 074°01'0 0.0
2017-Sep-20 08:23N 40°46' W 074°01'0 0.0
2017-Sep-20 07:58N 40°46' W 074°01'0 0.0
2017-Sep-20 07:29N 40°46' W 074°01'0 0.0
2017-Sep-20 06:52N 40°46' W 074°01'0 0.0
2017-Sep-20 06:29N 40°46' W 074°01'0 0.0
2017-Sep-20 05:58N 40°46' W 074°01'0 0.0
2017-Sep-20 05:25N 40°46' W 074°01'0 0.0
2017-Sep-20 04:53N 40°46' W 074°01'0 0.0
2017-Sep-20 04:23N 40°46' W 074°01'0 0.0
2017-Sep-20 03:59N 40°46' W 074°01'0 0.0
2017-Sep-20 03:24N 40°46' W 074°01'0 0.0
2017-Sep-20 02:59N 40°46' W 074°01'0 0.0
2017-Sep-20 02:28N 40°46' W 074°01'0 0.0
2017-Sep-20 02:00N 40°46' W 074°01'0 0.0
2017-Sep-20 01:28N 40°46' W 074°01'0 0.0
2017-Sep-20 01:00N 40°46' W 074°01'0 0.0
2017-Sep-20 00:23N 40°46' W 074°01'0 0.0
2017-Sep-20 00:00N 40°46' W 074°01'0 0.0
2017-Sep-19 23:24N 40°46' W 074°01'0 0.0
2017-Sep-19 22:55N 40°46' W 074°01'0 0.0
2017-Sep-19 22:28N 40°46' W 074°01'0 0.0
2017-Sep-19 21:59N 40°46' W 074°01'0 0.0
2017-Sep-19 21:24N 40°46' W 074°01'0 0.0
2017-Sep-19 20:54N 40°46' W 074°01'0 0.0
2017-Sep-19 20:29N 40°46' W 074°01'0 0.0
2017-Sep-19 19:54N 40°46' W 074°01'0 0.0
2017-Sep-19 19:25N 40°46' W 074°01'0 0.0
2017-Sep-19 18:55N 40°46' W 074°01'0 0.0
2017-Sep-19 18:30N 40°46' W 074°01'0 0.0
2017-Sep-19 18:00N 40°46' W 074°01'0 0.0
2017-Sep-19 17:24N 40°46' W 074°01'0 0.0
2017-Sep-19 16:53N 40°46' W 074°01'0 0.0
2017-Sep-19 16:23N 40°46' W 074°01'0 0.0
2017-Sep-19 15:59N 40°46' W 074°01'0 0.0
2017-Sep-19 15:26N 40°46' W 074°01'0 0.0
2017-Sep-19 14:59N 40°46' W 074°01'0 0.0
2017-Sep-19 14:30N 40°46' W 074°01'0 0.0
2017-Sep-19 14:00N 40°46' W 074°01'0 0.0
2017-Sep-19 13:27N 40°46' W 074°01'0 0.0
2017-Sep-19 12:54N 40°46' W 074°01'0 0.0
2017-Sep-19 12:30N 40°46' W 074°01'0 0.0
2017-Sep-19 11:56N 40°46' W 074°01'0 0.0
2017-Sep-19 11:26N 40°46' W 074°01'0 0.0
2017-Sep-19 10:55N 40°46' W 074°01'0 0.0
2017-Sep-19 10:30N 40°46' W 074°01'0 0.0
2017-Sep-19 09:57N 40°46' W 074°01'0 0.0
2017-Sep-19 09:30N 40°46' W 074°01'0 0.0
2017-Sep-19 08:58N 40°46' W 074°01'0 0.0
2017-Sep-19 08:30N 40°46' W 074°01'0 0.0
2017-Sep-19 07:59N 40°46' W 074°01'0 0.0
2017-Sep-19 07:30N 40°46' W 074°01'0 0.0
2017-Sep-19 06:59N 40°46' W 074°01'0 0.0
2017-Sep-19 06:29N 40°46' W 074°01'0 0.0
2017-Sep-19 05:59N 40°46' W 074°01'0 0.0
2017-Sep-19 05:27N 40°46' W 074°01'0 0.0
2017-Sep-19 04:58N 40°46' W 074°01'0 0.0
2017-Sep-19 04:30N 40°46' W 074°01'0 0.0
2017-Sep-19 03:58N 40°46' W 074°01'0 0.0
2017-Sep-19 03:24N 40°46' W 074°01'0 0.0
2017-Sep-19 03:00N 40°46' W 074°01'0 0.0
2017-Sep-19 02:28N 40°46' W 074°01'0 0.0
2017-Sep-19 01:58N 40°46' W 074°01'0 0.0
2017-Sep-19 01:30N 40°46' W 074°01'0 0.0
2017-Sep-19 00:53N 40°46' W 074°01'0 0.0
2017-Sep-19 00:28N 40°46' W 074°01'0 0.0
2017-Sep-18 23:57N 40°46' W 074°01'0 0.0
2017-Sep-18 23:26N 40°46' W 074°01'0 0.0
2017-Sep-18 22:58N 40°46' W 074°01'0 0.0
2017-Sep-18 22:28N 40°46' W 074°01'0 0.0
2017-Sep-18 21:59N 40°46' W 074°01'0 0.0
2017-Sep-18 21:24N 40°46' W 074°01'0 0.0
2017-Sep-18 20:57N 40°46' W 074°01'0 0.0
2017-Sep-18 20:30N 40°46' W 074°01'0 0.0
2017-Sep-18 20:00N 40°46' W 074°01'0 0.0
2017-Sep-18 19:26N 40°46' W 074°01'0 0.0
2017-Sep-18 18:55N 40°46' W 074°01'0 0.0
2017-Sep-18 18:28N 40°46' W 074°01'0 0.0
2017-Sep-18 17:59N 40°46' W 074°01'0 0.0
2017-Sep-18 17:29N 40°46' W 074°01'0 0.0
2017-Sep-18 17:00N 40°46' W 074°01'0 0.0
2017-Sep-18 16:30N 40°46' W 074°01'0 0.0
2017-Sep-18 16:00N 40°46' W 074°01'0 0.0
2017-Sep-18 15:30N 40°46' W 074°01'0 0.0
2017-Sep-18 15:00N 40°46' W 074°01'0 0.0
2017-Sep-18 14:30N 40°46' W 074°01'0 0.0
2017-Sep-18 13:56N 40°46' W 074°01'0 0.0
2017-Sep-18 13:21N 40°46' W 074°01'0 0.0
2017-Sep-18 12:54N 40°46' W 074°01'0 0.0
2017-Sep-18 12:30N 40°46' W 074°01'0 0.0
2017-Sep-18 11:58N 40°46' W 074°01'0 0.0
2017-Sep-18 11:28N 40°46' W 074°01'0 0.0
2017-Sep-18 10:54N 40°46' W 074°01'0 0.0
2017-Sep-18 10:29N 40°46' W 074°01'0 0.0
2017-Sep-18 09:57N 40°46' W 074°01'0 0.0
2017-Sep-18 09:27N 40°46' W 074°01'0 0.0
2017-Sep-18 09:00N 40°46' W 074°01'0 0.0
2017-Sep-18 08:28N 40°46' W 074°01'0 0.0
2017-Sep-18 07:59N 40°46' W 074°01'0 0.0
2017-Sep-18 07:29N 40°46' W 074°01'0 0.0
2017-Sep-18 06:54N 40°46' W 074°01'0 0.0
2017-Sep-18 06:29N 40°46' W 074°01'0 0.0
2017-Sep-18 05:59N 40°46' W 074°01'0 0.0
2017-Sep-18 05:26N 40°46' W 074°01'0 0.0
2017-Sep-18 05:00N 40°46' W 074°01'0 0.0
2017-Sep-18 04:20N 40°46' W 074°01'0 0.0
2017-Sep-18 04:00N 40°46' W 074°01'0 0.0
2017-Sep-18 03:27N 40°46' W 074°01'0 0.0
2017-Sep-18 02:58N 40°46' W 074°01'0 0.0
2017-Sep-18 02:29N 40°46' W 074°01'0 0.0
2017-Sep-18 01:58N 40°46' W 074°01'0 0.0
2017-Sep-18 01:27N 40°46' W 074°01'0 0.0
2017-Sep-18 00:53N 40°46' W 074°01'0 0.0
2017-Sep-18 00:29N 40°46' W 074°01'0 0.0
2017-Sep-17 23:59N 40°46' W 074°01'0 0.0
2017-Sep-17 23:27N 40°46' W 074°01'0 0.0
2017-Sep-17 22:59N 40°46' W 074°01'0 0.0
2017-Sep-17 22:28N 40°46' W 074°01'0 0.0
2017-Sep-17 21:54N 40°46' W 074°01'0 0.0
2017-Sep-17 21:24N 40°46' W 074°01'0 0.0
2017-Sep-17 21:00N 40°46' W 074°01'0 0.0
2017-Sep-17 20:30N 40°46' W 074°01'0 0.0
2017-Sep-17 20:00N 40°46' W 074°01'0 0.0
2017-Sep-17 19:26N 40°46' W 074°01'0 0.0
2017-Sep-17 18:54N 40°46' W 074°01'0 0.0
2017-Sep-17 18:23N 40°46' W 074°01'0 0.0
2017-Sep-17 17:57N 40°46' W 074°01'0 0.0
2017-Sep-17 17:26N 40°46' W 074°01'0 0.0
2017-Sep-17 16:58N 40°46' W 074°01'0 0.0
2017-Sep-17 16:30N 40°46' W 074°01'0 0.0
2017-Sep-17 15:58N 40°46' W 074°01'0 0.0
2017-Sep-17 15:24N 40°46' W 074°01'0 0.0
2017-Sep-17 14:53N 40°46' W 074°01'0 0.0
2017-Sep-17 14:29N 40°46' W 074°01'0 0.0
2017-Sep-17 13:59N 40°46' W 074°01'0 0.0
2017-Sep-17 13:26N 40°46' W 074°01'0 0.0
2017-Sep-17 12:57N 40°46' W 074°01'0 0.0
2017-Sep-17 12:27N 40°46' W 074°01'0 0.0
2017-Sep-17 11:59N 40°46' W 074°01'0 0.0
2017-Sep-17 11:26N 40°46' W 074°01'0 0.0
2017-Sep-17 10:55N 40°46' W 074°01'0 0.0
2017-Sep-17 10:28N 40°46' W 074°01'0 0.0
2017-Sep-17 09:57N 40°46' W 074°01'0 0.0
2017-Sep-17 09:25N 40°46' W 074°01'0 0.0
2017-Sep-17 08:52N 40°46' W 074°01'0 0.0
2017-Sep-17 08:29N 40°46' W 074°01'0 0.0
2017-Sep-17 07:58N 40°46' W 074°01'0 0.0
2017-Sep-17 07:30N 40°46' W 074°01'0 0.0
2017-Sep-17 07:00N 40°46' W 074°01'0 0.0
2017-Sep-17 06:23N 40°46' W 074°01'0 0.0
2017-Sep-17 05:57N 40°46' W 074°01'0 0.0
2017-Sep-17 05:30N 40°46' W 074°01'0 0.0
2017-Sep-17 04:54N 40°46' W 074°01'0 0.0
2017-Sep-17 04:29N 40°46' W 074°01'0 0.0
2017-Sep-17 03:58N 40°46' W 074°01'0 0.0
2017-Sep-17 03:30N 40°46' W 074°01'0 0.0
2017-Sep-17 02:56N 40°46' W 074°01'0 0.0
2017-Sep-17 02:28N 40°46' W 074°01'0 0.0
2017-Sep-17 02:00N 40°46' W 074°01'0 0.0
2017-Sep-17 01:26N 40°46' W 074°01'0 0.0
2017-Sep-17 00:58N 40°46' W 074°01'0 0.0
2017-Sep-17 00:28N 40°46' W 074°01'0 0.0
2017-Sep-16 23:59N 40°46' W 074°01'0 0.0
2017-Sep-16 23:28N 40°46' W 074°01'0 0.0
2017-Sep-16 22:55N 40°46' W 074°01'0 0.0
2017-Sep-16 22:29N 40°46' W 074°01'0 0.0
2017-Sep-16 21:56N 40°46' W 074°01'0 0.0
2017-Sep-16 21:25N 40°46' W 074°01'0 0.0
2017-Sep-16 21:00N 40°46' W 074°01'0 0.0
2017-Sep-16 20:28N 40°46' W 074°01'0 0.0
2017-Sep-16 19:59N 40°46' W 074°01'0 0.0
2017-Sep-16 19:25N 40°46' W 074°01'0 0.0
2017-Sep-16 18:55N 40°46' W 074°01'0 0.0
2017-Sep-16 18:29N 40°46' W 074°01'0 0.0
2017-Sep-16 18:00N 40°46' W 074°01'0 0.0
2017-Sep-16 17:30N 40°46' W 074°01'0 0.0
2017-Sep-16 16:54N 40°46' W 074°01'0 0.0
2017-Sep-16 16:28N 40°46' W 074°01'0 0.0
2017-Sep-16 15:58N 40°46' W 074°01'0 0.0
2017-Sep-16 15:28N 40°46' W 074°01'0 0.0
2017-Sep-16 14:57N 40°46' W 074°01'0 0.0
2017-Sep-16 14:30N 40°46' W 074°01'0 0.0
2017-Sep-16 14:00N 40°46' W 074°01'0 0.0
2017-Sep-16 13:28N 40°46' W 074°01'0 0.0
2017-Sep-16 12:59N 40°46' W 074°01'0 0.0
2017-Sep-16 12:28N 40°46' W 074°01'0 0.0
2017-Sep-16 11:59N 40°46' W 074°01'0 0.0
2017-Sep-16 11:30N 40°46' W 074°01'0 0.0
2017-Sep-16 10:55N 40°46' W 074°01'0 0.0
2017-Sep-16 10:30N 40°46' W 074°01'0 0.0
2017-Sep-16 09:59N 40°46' W 074°01'0 0.0
2017-Sep-16 09:25N 40°46' W 074°01'0 0.0
2017-Sep-16 08:58N 40°46' W 074°01'0 0.0
2017-Sep-16 08:29N 40°46' W 074°01'0 0.0
2017-Sep-16 08:00N 40°46' W 074°01'0 0.0
2017-Sep-16 07:28N 40°46' W 074°01'0 0.0
2017-Sep-16 06:58N 40°46' W 074°01'0 0.0
2017-Sep-16 06:29N 40°46' W 074°01'0 0.0
2017-Sep-16 05:57N 40°46' W 074°01'0 0.0
2017-Sep-16 05:30N 40°46' W 074°01'0 0.0
2017-Sep-16 04:59N 40°46' W 074°01'0 0.0
2017-Sep-16 04:28N 40°46' W 074°01'0 0.0
2017-Sep-16 03:54N 40°46' W 074°01'0 0.0
2017-Sep-16 03:28N 40°46' W 074°01'0 0.0
2017-Sep-16 03:00N 40°46' W 074°01'0 0.0
2017-Sep-16 02:28N 40°46' W 074°01'0 0.0
2017-Sep-16 01:59N 40°46' W 074°01'0 0.0
2017-Sep-16 01:26N 40°46' W 074°01'0 0.0
2017-Sep-16 01:00N 40°46' W 074°01'0 0.0
2017-Sep-16 00:30N 40°46' W 074°01'0 0.0
2017-Sep-15 23:59N 40°46' W 074°01'0 0.0
2017-Sep-15 23:26N 40°46' W 074°01'0 0.0
2017-Sep-15 22:55N 40°46' W 074°01'0 0.0
2017-Sep-15 22:29N 40°46' W 074°01'0 0.0
2017-Sep-15 21:59N 40°46' W 074°01'0 0.0
2017-Sep-15 21:25N 40°46' W 074°01'0 0.0
2017-Sep-15 20:58N 40°46' W 074°01'0 0.0
2017-Sep-15 20:28N 40°46' W 074°01'0 0.0
2017-Sep-15 19:57N 40°46' W 074°01'0 0.0
2017-Sep-15 19:27N 40°46' W 074°01'0 0.0
2017-Sep-15 18:58N 40°46' W 074°01'0 0.0
2017-Sep-15 18:28N 40°46' W 074°01'0 0.0
2017-Sep-15 17:59N 40°46' W 074°01'0 0.0
2017-Sep-15 17:27N 40°46' W 074°01'0 0.0
2017-Sep-15 16:55N 40°46' W 074°01'0 0.0
2017-Sep-15 16:30N 40°46' W 074°01'0 0.0
2017-Sep-15 15:59N 40°46' W 074°01'0 0.0
2017-Sep-15 15:29N 40°46' W 074°01'0 0.0
2017-Sep-15 14:58N 40°46' W 074°01'0 0.0
2017-Sep-15 14:30N 40°46' W 074°01'0 0.0
2017-Sep-15 13:57N 40°46' W 074°01'0 0.0
2017-Sep-15 13:30N 40°46' W 074°01'0 0.0
2017-Sep-15 13:01N 40°46' W 074°01'0 0.0
2017-Sep-15 12:28N 40°46' W 074°01'0 0.0
2017-Sep-15 11:59N 40°46' W 074°01'0 0.0
2017-Sep-15 11:25N 40°46' W 074°01'0 0.0
2017-Sep-15 11:01N 40°46' W 074°01'0 0.0
2017-Sep-15 10:30N 40°46' W 074°01'0 0.0
2017-Sep-15 10:00N 40°46' W 074°01'0 0.0
2017-Sep-15 09:29N 40°46' W 074°01'0 0.0
2017-Sep-15 08:58N 40°46' W 074°01'0 0.0
2017-Sep-15 08:30N 40°46' W 074°01'0 0.0
2017-Sep-15 08:00N 40°46' W 074°01'0 0.0
2017-Sep-15 07:25N 40°46' W 074°01'0 0.0
2017-Sep-15 07:01N 40°46' W 074°01'0 0.0
2017-Sep-15 06:31N 40°46' W 074°01'0 0.0
2017-Sep-15 05:58N 40°46' W 074°01'0 0.0
2017-Sep-15 05:30N 40°46' W 074°01'0 0.0
2017-Sep-15 04:58N 40°46' W 074°01'0 0.0
2017-Sep-15 04:28N 40°46' W 074°01'0 0.0
2017-Sep-15 03:56N 40°46' W 074°01'0 0.0
2017-Sep-15 03:28N 40°46' W 074°01'0 0.0
2017-Sep-15 02:59N 40°46' W 074°01'0 0.0
2017-Sep-15 02:29N 40°46' W 074°01'0 0.0
2017-Sep-15 01:55N 40°46' W 074°01'0 0.0
2017-Sep-15 01:25N 40°46' W 074°01'0 0.0
2017-Sep-15 00:57N 40°46' W 074°01'0 0.0
2017-Sep-15 00:30N 40°46' W 074°01'0 0.0
2017-Sep-14 23:59N 40°46' W 074°01'0 0.0
2017-Sep-14 23:26N 40°46' W 074°01'0 0.0
2017-Sep-14 22:54N 40°46' W 074°01'0 0.0
2017-Sep-14 22:30N 40°46' W 074°01'0 0.0
2017-Sep-14 21:56N 40°46' W 074°01'0 0.0
2017-Sep-14 21:30N 40°46' W 074°01'0 0.0
2017-Sep-14 21:00N 40°46' W 074°01'0 0.0
2017-Sep-14 20:31N 40°46' W 074°01'0 0.0
2017-Sep-14 19:56N 40°46' W 074°01'0 0.0
2017-Sep-14 19:27N 40°46' W 074°01'0 0.0
2017-Sep-14 19:00N 40°46' W 074°01'0 0.0
2017-Sep-14 18:27N 40°46' W 074°01'0 0.0
2017-Sep-14 17:55N 40°46' W 074°01'0 0.0
2017-Sep-14 17:17N 40°46' W 074°01'0 0.0
2017-Sep-14 16:55N 40°46' W 074°01'0 0.0
2017-Sep-14 16:28N 40°46' W 074°01'0 0.0
2017-Sep-14 15:59N 40°46' W 074°01'0 0.0
2017-Sep-14 15:28N 40°46' W 074°01'0 0.0
2017-Sep-14 14:53N 40°46' W 074°01'0 0.0
2017-Sep-14 14:30N 40°46' W 074°01'0 0.0
2017-Sep-14 14:00N 40°46' W 074°01'0 0.0
2017-Sep-14 13:30N 40°46' W 074°01'0 0.0
2017-Sep-14 12:53N 40°46' W 074°01'0 0.0
2017-Sep-14 12:29N 40°46' W 074°01'0 0.0
2017-Sep-14 11:55N 40°46' W 074°01'0 0.0
2017-Sep-14 11:29N 40°46' W 074°01'0 0.0
2017-Sep-14 10:51N 40°46' W 074°01'0 0.0
2017-Sep-14 10:27N 40°46' W 074°01'  

Dump ship's entire track history